Ana Sayfa
METAR-TAF:

METAR-TAF

Havaalanları :

Oakey, Avustralya

Enlem: 27-24-41S, Boylam: 151-44-07E, yükseklik: 407 m

Güncel hava durumu gözlemi

Rapor saat 11:00 UTC de 1 saat ve 13 dakika önce yapıldı.
Rüzgar doğu/güneydoğudan 11 kt
Sıcaklık 14°C
Nem 77%
Basınç 1030 hPa
Görüş mesafesi 10 km veya daha fazla
4000 ft yükseklikte az bulutlu

METAR: YBOK 271100Z 11011KT 9999 FEW040 14/10 Q1030 NOSIG

Saat: 22:13 (12:13 UTC)


TAF: eksik

4.000'den fazla havaalanı için hava durumu gözlemleri ve tahminleri (METAR ve TAF raporları).

Kullanılabilir istasyonlar harita üzerinde sarı ve kırmızı noktalarla gösterilir.

İstasyonun adını görmek için fareyi noktanın üzerinde gezdirin.

Sonrasında hava gözlem ve tahminlerini görmek için tıklayın.

Haritayı değiştirmek için: yaklaştırmak için siyah artı işaretli yeşil düğmeye ve uzaklaştırmak için de eksi işaretli düğmeye hızla tıklayın; bitişik haritalar için yeşil okları kullanın.


METAR-TAF: